Time;durP1;ratioP1;P1;durP2;ratioP2;P2;SDS_P1;SDS_P2;PMS_P1;PMS_P2;Temp;Humidity;BMP_temperature;BMP_pressure;BME280_temperature;BME280_humidity;BME280_pressure;Samples;Min_cycle;Max_cycle;Signal;HPM_P1;HPM_P2
2022/06/21 00:01:13;;;;;;;5.10;2.30;;;;;;;11.56;73.51;100764.41;7396991;19;20015;-65
2022/06/21 00:03:45;;;;;;;5.22;2.30;;;;;;;11.55;73.55;100764.44;7396457;19;20046;-64
2022/06/21 00:06:15;;;;;;;6.15;2.33;;;;;;;11.52;73.54;100770.63;7398232;19;20528;-64
2022/06/21 00:08:44;;;;;;;2.28;1.88;;;;;;;11.50;73.44;100767.19;7398942;19;20014;-65
2022/06/21 00:11:23;;;;;;;2.88;1.95;;;;;;;11.48;73.30;100769.00;7395802;19;20031;-66
2022/06/21 00:13:51;;;;;;;2.20;2.00;;;;;;;11.46;73.35;100773.44;7398054;19;20489;-65
2022/06/21 00:16:21;;;;;;;3.08;2.10;;;;;;;11.44;73.31;100772.59;7398246;19;20031;-65
2022/06/21 00:18:53;;;;;;;5.40;2.50;;;;;;;11.41;73.37;100767.41;7398227;19;20515;-66
2022/06/21 00:21:25;;;;;;;2.78;2.03;;;;;;;11.40;73.39;100765.72;7396241;19;20090;-65
2022/06/21 00:23:54;;;;;;;2.83;1.88;;;;;;;11.39;73.54;100775.34;7397219;19;20395;-66
2022/06/21 00:26:33;;;;;;;3.08;2.20;;;;;;;11.38;73.56;100778.84;7397666;19;20014;-65
2022/06/21 00:29:02;;;;;;;4.00;2.00;;;;;;;11.35;73.67;100786.81;7395550;19;20035;-65
2022/06/21 00:31:34;;;;;;;5.32;2.53;;;;;;;11.33;73.74;100791.25;7395354;19;20019;-65
2022/06/21 00:34:10;;;;;;;3.85;2.10;;;;;;;11.30;73.88;100788.69;7396463;19;20014;-65
2022/06/21 00:36:39;;;;;;;4.53;2.45;;;;;;;11.28;73.88;100789.63;7395332;19;20026;-65
2022/06/21 00:39:09;;;;;;;3.60;2.85;;;;;;;11.25;74.03;100794.06;7397180;19;20431;-65
2022/06/21 00:41:43;;;;;;;2.95;2.10;;;;;;;11.24;74.02;100787.06;7395874;19;20082;-65
2022/06/21 00:44:15;;;;;;;5.40;2.60;;;;;;;11.20;74.28;100790.69;7396950;19;20018;-65
2022/06/21 00:46:47;;;;;;;4.05;2.22;;;;;;;11.19;74.27;100793.34;7395927;19;20082;-66
2022/06/21 00:49:23;;;;;;;4.65;2.40;;;;;;;11.17;74.50;100787.25;7396008;19;20018;-65
2022/06/21 00:51:57;;;;;;;2.45;2.25;;;;;;;11.16;74.73;100796.91;7396338;19;20028;-66
2022/06/21 00:54:31;;;;;;;3.58;2.42;;;;;;;11.16;74.74;100799.53;7397525;19;20025;-65
2022/06/21 00:57:03;;;;;;;5.15;2.70;;;;;;;11.14;75.06;100789.97;7395625;19;20035;-65
2022/06/21 00:59:35;;;;;;;4.20;2.90;;;;;;;11.13;75.12;100790.84;7396044;19;20031;-66
2022/06/21 01:02:06;;;;;;;5.45;2.95;;;;;;;11.13;75.39;100796.13;7398256;19;20399;-66
2022/06/21 01:04:41;;;;;;;4.95;2.40;;;;;;;11.13;75.33;100789.09;7395590;19;20028;-66
2022/06/21 01:07:13;;;;;;;3.88;2.63;;;;;;;11.13;75.58;100793.47;7396051;19;20038;-65
2022/06/21 01:09:49;;;;;;;5.65;2.97;;;;;;;11.12;75.73;100794.38;7396170;19;20019;-65
2022/06/21 01:12:23;;;;;;;4.03;2.40;;;;;;;11.06;76.15;100788.38;7395144;19;20078;-65
2022/06/21 01:14:57;;;;;;;4.22;2.70;;;;;;;11.08;76.01;100798.84;7390603;19;20022;-65
2022/06/21 01:17:28;;;;;;;6.70;3.03;;;;;;;11.08;76.20;100785.69;7394151;19;20015;-65
2022/06/21 01:20:02;;;;;;;5.57;2.83;;;;;;;11.07;76.21;100789.25;7394727;19;20018;-65
2022/06/21 01:22:40;;;;;;;5.45;3.15;;;;;;;11.03;76.68;100787.56;7395725;19;20028;-65
2022/06/21 01:25:24;;;;;;;5.38;2.90;;;;;;;11.03;76.65;100792.81;7394902;19;20014;-65
2022/06/21 01:27:56;;;;;;;5.55;3.50;;;;;;;11.01;76.71;100794.66;7394925;19;20039;-65
2022/06/21 01:30:26;;;;;;;6.15;3.40;;;;;;;10.98;76.81;100795.56;7396287;19;20037;-65
2022/06/21 01:32:55;;;;;;;4.38;3.35;;;;;;;10.97;77.11;100791.22;7395809;19;20019;-65
2022/06/21 01:35:37;;;;;;;10.77;3.67;;;;;;;10.96;77.47;100796.50;7396127;19;20423;-66
2022/06/21 01:38:08;;;;;;;5.55;3.33;;;;;;;10.94;77.10;100790.41;7394363;19;20032;-65
2022/06/21 01:40:42;;;;;;;5.80;3.33;;;;;;;10.92;77.53;100800.97;7394337;19;20014;-65
2022/06/21 01:43:17;;;;;;;4.32;2.92;;;;;;;10.89;77.59;100794.03;7395586;19;20107;-65
2022/06/21 01:45:48;;;;;;;6.82;3.13;;;;;;;10.87;77.51;100797.56;7394033;19;20010;-66
2022/06/21 01:48:24;;;;;;;3.55;3.05;;;;;;;10.86;77.80;100796.69;7394060;19;20019;-66
2022/06/21 01:50:58;;;;;;;8.02;3.53;;;;;;;10.83;77.86;100790.66;7393946;19;20018;-66
2022/06/21 01:53:28;;;;;;;6.63;3.10;;;;;;;10.81;78.27;100789.84;7393927;19;20022;-66
2022/06/21 01:56:01;;;;;;;5.22;3.30;;;;;;;10.81;78.46;100797.72;7393819;19;20078;-66
2022/06/21 01:58:35;;;;;;;6.88;3.60;;;;;;;10.79;78.55;100792.47;7393048;19;20031;-66
2022/06/21 02:01:09;;;;;;;3.22;2.75;;;;;;;10.79;78.58;100794.25;7393690;19;20015;-66
2022/06/21 02:03:41;;;;;;;5.80;3.47;;;;;;;10.76;78.97;100796.03;7398226;19;20022;-65
2022/06/21 02:06:15;;;;;;;6.82;3.70;;;;;;;10.74;78.90;100792.59;7399113;19;20035;-66
2022/06/21 02:08:47;;;;;;;5.18;3.13;;;;;;;10.74;79.23;100799.56;7402903;19;20089;-69
2022/06/21 02:11:23;;;;;;;5.80;3.45;;;;;;;10.72;79.66;100799.63;7399204;19;20470;-65
2022/06/21 02:16:38;;;;;;;4.07;3.25;;;;;;;10.69;79.57;100794.44;7403296;19;20021;-66
2022/06/21 02:19:21;;;;;;;8.63;3.72;;;;;;;10.68;79.63;100797.09;7398714;19;20027;-66
2022/06/21 02:21:50;;;;;;;9.00;3.75;;;;;;;10.67;79.84;100800.63;7402150;19;20018;-66
2022/06/21 02:24:18;;;;;;;6.57;4.25;;;;;;;10.65;79.92;100803.25;7398778;19;20098;-66
2022/06/21 02:26:48;;;;;;;7.10;3.60;;;;;;;10.62;79.95;100803.34;7398478;19;20015;-66
2022/06/21 02:29:19;;;;;;;8.70;3.75;;;;;;;10.59;80.21;100803.41;7398138;19;20015;-66
2022/06/21 02:31:48;;;;;;;7.45;3.70;;;;;;;10.56;80.19;100806.97;7401250;19;20097;-66
2022/06/21 02:34:22;;;;;;;5.15;3.60;;;;;;;10.53;80.36;100808.78;7398224;19;20019;-66
2022/06/21 02:36:55;;;;;;;8.00;3.90;;;;;;;10.51;80.54;100811.41;7398642;19;20126;-66
2022/06/21 02:39:27;;;;;;;4.78;3.53;;;;;;;10.48;80.70;100814.13;7398106;19;20033;-66
2022/06/21 02:42:00;;;;;;;9.55;3.90;;;;;;;10.45;80.98;100811.56;7399769;19;20073;-66
2022/06/21 02:44:37;;;;;;;5.57;3.50;;;;;;;10.42;81.18;100814.25;7398506;19;20086;-66
2022/06/21 02:47:12;;;;;;;5.53;3.78;;;;;;;10.38;81.11;100821.31;7398022;19;20070;-66
2022/06/21 02:49:45;;;;;;;9.32;4.25;;;;;;;10.32;81.41;100813.50;7398078;19;20014;-66
2022/06/21 02:52:18;;;;;;;7.57;4.10;;;;;;;10.26;81.79;100814.50;7400752;19;20020;-65
2022/06/21 02:54:55;;;;;;;8.55;4.03;;;;;;;10.20;81.84;100817.25;7397921;19;20086;-66
2022/06/21 02:57:31;;;;;;;8.00;4.00;;;;;;;10.14;81.97;100809.50;7398475;19;20031;-66
2022/06/21 03:00:06;;;;;;;4.68;3.95;;;;;;;10.12;82.27;100808.66;7401057;19;20022;-65
2022/06/21 03:02:35;;;;;;;5.13;3.75;;;;;;;10.07;82.26;100816.63;7398566;19;20015;-65
2022/06/21 03:05:09;;;;;;;5.70;3.63;;;;;;;10.04;82.49;100810.56;7397846;19;20018;-66
2022/06/21 03:07:42;;;;;;;6.90;4.68;;;;;;;10.01;82.70;100805.38;7397593;19;20011;-65
2022/06/21 03:10:19;;;;;;;8.98;4.07;;;;;;;9.98;82.89;100805.44;7400647;19;20078;-65
2022/06/21 03:12:51;;;;;;;10.68;4.60;;;;;;;9.95;82.78;100807.22;7396475;19;20488;-65
2022/06/21 03:15:22;;;;;;;6.72;4.53;;;;;;;9.94;82.78;100807.25;7397360;19;20017;-65
2022/06/21 03:17:57;;;;;;;8.95;4.35;;;;;;;9.90;83.20;100798.56;7400210;19;20023;-65
2022/06/21 03:20:26;;;;;;;9.77;4.70;;;;;;;9.89;83.44;100804.69;7397567;19;20023;-65
2022/06/21 03:22:57;;;;;;;9.50;4.85;;;;;;;9.87;83.67;100808.25;7397656;19;20018;-66
2022/06/21 03:25:30;;;;;;;5.38;4.57;;;;;;;9.84;83.63;100805.69;7396932;19;20447;-66
2022/06/21 03:28:01;;;;;;;8.63;4.38;;;;;;;9.83;83.75;100803.94;7399561;19;20017;-65
2022/06/21 03:30:35;;;;;;;6.35;4.93;;;;;;;9.82;84.00;100810.06;7397231;19;20039;-65
2022/06/21 03:33:10;;;;;;;;;;;;;;;9.79;85.24;100816.25;7397967;19;20074;-65
2022/06/21 03:35:39;;;;;;;9.05;5.25;;;;;;;9.76;83.77;100813.69;7396680;19;19978;-65
2022/06/21 03:38:08;;;;;;;9.32;5.30;;;;;;;9.77;83.86;100818.03;7395332;19;20014;-65
2022/06/21 03:43:23;;;;;;;9.40;5.50;;;;;;;9.76;84.39;100819.78;7398228;19;20023;-65
2022/06/21 03:45:58;;;;;;;10.40;5.63;;;;;;;9.77;84.56;100823.28;7396083;19;20334;-65
2022/06/21 03:48:31;;;;;;;10.15;5.43;;;;;;;9.78;84.64;100817.13;7396724;19;20023;-65
2022/06/21 03:51:06;;;;;;;9.00;5.13;;;;;;;9.80;84.96;100825.84;7396269;19;20019;-65
2022/06/21 03:53:37;;;;;;;9.25;5.53;;;;;;;9.82;84.78;100828.41;7394995;19;20457;-65
2022/06/21 03:56:13;;;;;;;8.88;5.30;;;;;;;9.85;84.91;100833.63;7396283;19;20010;-65
2022/06/21 03:58:51;;;;;;;7.95;5.30;;;;;;;9.87;84.78;100832.72;7396211;19;20035;-66
2022/06/21 04:01:31;;;;;;;7.90;4.65;;;;;;;9.90;85.15;100830.00;7396281;19;20015;-65
2022/06/21 04:04:06;;;;;;;8.18;4.75;;;;;;;9.94;85.31;100833.44;7395602;19;20372;-65
2022/06/21 04:06:43;;;;;;;8.82;5.82;;;;;;;9.97;85.34;100836.03;7395884;19;20027;-65
2022/06/21 04:09:23;;;;;;;8.90;5.32;;;;;;;10.01;85.15;100842.94;7397544;19;20023;-65
2022/06/21 04:12:01;;;;;;;10.32;5.40;;;;;;;10.05;85.27;100846.38;7396192;19;20014;-65
2022/06/21 04:14:34;;;;;;;8.70;5.10;;;;;;;10.09;85.39;100846.28;7395739;19;20026;-66
2022/06/21 04:17:12;;;;;;;10.40;5.60;;;;;;;10.14;85.77;100834.88;7395361;19;20015;-66
2022/06/21 04:19:46;;;;;;;7.50;4.90;;;;;;;10.19;86.46;100839.13;7395879;19;20018;-66
2022/06/21 04:22:24;;;;;;;9.73;5.22;;;;;;;10.24;85.77;100845.13;7394959;19;20453;-66
2022/06/21 04:24:57;;;;;;;15.88;5.90;;;;;;;10.30;85.95;100845.91;7393442;19;20106;-66
2022/06/21 04:27:32;;;;;;;9.50;5.18;;;;;;;10.35;85.93;100844.06;7394942;19;20480;-66
2022/06/21 04:30:05;;;;;;;7.43;4.80;;;;;;;10.41;86.02;100847.47;7395574;19;20022;-66
2022/06/21 04:32:43;;;;;;;8.63;5.43;;;;;;;10.45;86.34;100840.44;7396005;19;20014;-67
2022/06/21 04:35:18;;;;;;;11.90;5.53;;;;;;;10.54;86.00;100847.22;7394679;19;20106;-66
2022/06/21 04:37:53;;;;;;;7.75;4.50;;;;;;;10.59;86.81;100855.88;7395850;19;20078;-66
2022/06/21 04:40:30;;;;;;;9.65;4.60;;;;;;;10.67;86.32;100855.72;7394858;19;20015;-66
2022/06/21 04:43:05;;;;;;;10.13;4.65;;;;;;;10.72;86.12;100862.59;7395109;19;20022;-66
2022/06/21 04:45:39;;;;;;;12.50;4.30;;;;;;;10.79;85.99;100863.31;7394796;19;20011;-65
2022/06/21 04:48:25;;;;;;;10.43;4.95;;;;;;;10.85;86.49;100860.56;7394622;19;20498;-66
2022/06/21 04:51:00;;;;;;;10.07;4.28;;;;;;;10.91;85.94;100863.06;7395741;19;20027;-66
2022/06/21 04:53:37;;;;;;;8.98;4.13;;;;;;;10.96;86.11;100870.00;7395390;19;20039;-66
2022/06/21 04:56:11;;;;;;;10.23;4.65;;;;;;;11.01;85.91;100858.50;7394231;19;20028;-65
2022/06/21 04:58:40;;;;;;;10.88;5.15;;;;;;;11.06;86.03;100872.38;7394082;19;20018;-66
2022/06/21 05:03:53;;;;;;;6.88;4.18;;;;;;;11.17;85.51;100872.16;7393372;19;20086;-66
2022/06/21 05:06:22;;;;;;;7.18;4.07;;;;;;;11.23;85.60;100881.66;7395066;19;20373;-67
2022/06/21 05:08:52;;;;;;;7.85;4.03;;;;;;;11.29;85.20;100878.03;7392487;19;20019;-66
2022/06/21 05:11:21;;;;;;;10.45;3.92;;;;;;;11.34;85.34;100887.53;7394506;19;20037;-65
2022/06/21 05:14:26;;;;;;;14.35;4.90;;;;;;;11.37;85.25;100881.34;7393852;19;20014;-66
2022/06/21 05:17:01;;;;;;;7.90;4.15;;;;;;;11.43;85.03;100867.22;7393651;19;20019;-66
2022/06/21 05:19:36;;;;;;;13.98;3.67;;;;;;;11.48;84.82;100862.72;7394441;19;20010;-67
2022/06/21 05:22:08;;;;;;;12.95;4.53;;;;;;;11.53;84.88;100874.84;7395069;19;20023;-67
2022/06/21 05:24:38;;;;;;;12.60;3.78;;;;;;;11.60;85.12;100888.72;7393469;19;20018;-67
2022/06/21 05:27:12;;;;;;;9.68;3.42;;;;;;;11.64;85.04;100881.59;7392425;19;20022;-68
2022/06/21 05:29:46;;;;;;;12.13;4.18;;;;;;;11.72;84.51;100871.78;7394823;19;20034;-68
2022/06/21 05:32:16;;;;;;;;;;;;;;;11.78;84.79;100876.88;7396320;19;20507;-68
2022/06/21 05:34:51;;;;;;;10.20;3.75;;;;;;;11.84;84.08;100876.72;7394112;19;19923;-68
2022/06/21 05:37:29;;;;;;;7.18;4.00;;;;;;;11.90;84.04;100880.97;7393340;19;20023;-68
2022/06/21 05:40:01;;;;;;;10.13;3.42;;;;;;;11.97;83.67;100876.47;7395332;19;20015;-67
2022/06/21 05:42:31;;;;;;;11.75;3.53;;;;;;;12.04;83.46;100886.78;7396925;19;20014;-71
2022/06/21 05:45:06;;;;;;;12.93;3.25;;;;;;;12.12;83.22;100877.81;7394926;19;20015;-71
2022/06/21 05:47:40;;;;;;;6.65;2.92;;;;;;;12.21;83.07;100870.56;7395438;19;20379;-70
2022/06/21 05:50:15;;;;;;;;;;;;;;;12.28;82.14;100868.59;7394307;19;20038;-70
2022/06/21 05:52:47;;;;;;;9.18;3.22;;;;;;;12.33;81.44;100879.00;7393650;19;20259;-70
2022/06/21 05:55:21;;;;;;;10.02;2.78;;;;;;;12.39;81.58;100874.44;7392176;19;20141;-69
2022/06/21 05:57:52;;;;;;;8.40;2.92;;;;;;;12.46;81.67;100869.00;7392460;19;20010;-70
2022/06/21 06:00:32;;;;;;;5.95;2.53;;;;;;;12.54;80.68;100873.16;7393083;19;20143;-69
2022/06/21 06:03:07;;;;;;;8.88;2.65;;;;;;;12.60;80.53;100874.78;7392211;19;20032;-69
2022/06/21 06:05:39;;;;;;;5.05;2.35;;;;;;;12.66;80.46;100877.25;7392084;19;20507;-71
2022/06/21 06:08:12;;;;;;;5.38;2.47;;;;;;;12.70;78.79;100880.63;7392816;19;20022;-69
2022/06/21 06:10:46;;;;;;;5.30;2.03;;;;;;;12.77;78.34;100878.69;7392524;19;20361;-70
2022/06/21 06:13:19;;;;;;;7.43;1.92;;;;;;;12.82;77.78;100884.69;7392628;19;20027;-70
2022/06/21 06:15:51;;;;;;;5.18;2.25;;;;;;;12.87;77.69;100883.63;7392134;19;20014;-71
2022/06/21 06:18:22;;;;;;;10.23;2.35;;;;;;;12.95;77.18;100882.56;7393103;19;20407;-70
2022/06/21 06:20:59;;;;;;;5.85;1.80;;;;;;;13.03;75.84;100888.47;7393297;19;20018;-70
2022/06/21 06:23:35;;;;;;;5.90;2.17;;;;;;;13.09;75.37;100879.50;7391188;19;20018;-70
2022/06/21 06:26:07;;;;;;;5.90;2.30;;;;;;;13.13;75.24;100884.66;7391883;19;20031;-71
2022/06/21 06:28:44;;;;;;;4.32;1.90;;;;;;;13.20;74.07;100878.28;7391999;19;20082;-71
2022/06/21 06:31:21;;;;;;;5.88;1.92;;;;;;;13.28;74.22;100885.06;7391894;19;20101;-70
2022/06/21 06:33:55;;;;;;;6.35;1.85;;;;;;;13.36;74.59;100889.22;7392398;19;20018;-71
2022/06/21 06:36:27;;;;;;;;;;;;;;;13.41;73.07;100885.59;7394280;19;20074;-71
2022/06/21 06:38:56;;;;;;;6.22;2.03;;;;;;;13.48;74.41;100887.13;7390804;19;19919;-71
2022/06/21 06:41:33;;;;;;;9.25;2.30;;;;;;;13.55;73.78;100885.16;7392021;19;20037;-70
2022/06/21 06:44:05;;;;;;;7.57;2.03;;;;;;;13.59;72.83;100879.75;7390718;19;20373;-70
2022/06/21 06:46:36;;;;;;;5.78;1.83;;;;;;;13.67;71.85;100883.00;7390954;19;20011;-71
2022/06/21 06:49:17;;;;;;;4.35;1.60;;;;;;;13.75;72.10;100887.16;7395075;19;20019;-70
2022/06/21 06:51:56;;;;;;;5.57;2.15;;;;;;;13.83;71.44;100896.53;7397193;19;20011;-70
2022/06/21 06:54:35;;;;;;;8.40;2.30;;;;;;;13.93;72.13;100893.63;7397707;19;20022;-71
2022/06/21 06:57:11;;;;;;;7.72;2.10;;;;;;;13.99;71.34;100893.41;7398211;19;20145;-71
2022/06/21 06:59:40;;;;;;;7.68;1.70;;;;;;;14.06;70.50;100881.72;7400656;19;20014;-71
2022/06/21 07:02:18;;;;;;;10.38;2.33;;;;;;;14.13;70.19;100872.69;7397491;19;20018;-71
2022/06/21 07:04:50;;;;;;;5.40;1.80;;;;;;;14.21;70.16;100882.13;7396633;19;20015;-72
2022/06/21 07:07:30;;;;;;;6.38;2.03;;;;;;;14.28;69.02;100880.97;7397842;19;20473;-71
2022/06/21 07:10:06;;;;;;;4.25;1.70;;;;;;;14.32;70.00;100869.41;7397055;19;20011;-72
2022/06/21 07:12:34;;;;;;;5.80;1.58;;;;;;;14.36;68.95;100872.81;7399261;19;20033;-71
2022/06/21 07:15:04;;;;;;;5.82;1.63;;;;;;;14.40;68.72;100883.19;7395496;19;20010;-72
2022/06/21 07:17:37;;;;;;;6.15;2.08;;;;;;;14.41;69.13;100874.34;7396082;19;20027;-71
2022/06/21 07:20:14;;;;;;;8.38;2.10;;;;;;;14.47;67.57;100879.41;7396640;19;20015;-71
2022/06/21 07:22:46;;;;;;;5.47;1.50;;;;;;;14.55;68.04;100870.38;7396988;19;20078;-73
2022/06/21 07:25:22;;;;;;;3.15;1.90;;;;;;;14.63;66.38;100870.94;7397238;19;20023;-72
2022/06/21 07:27:55;;;;;;;5.47;1.58;;;;;;;14.65;67.07;100866.50;7396945;19;20041;-72
2022/06/21 07:30:28;;;;;;;7.27;1.90;;;;;;;14.74;66.79;100868.78;7397422;19;20040;-71
2022/06/21 07:33:00;;;;;;;11.45;2.28;;;;;;;14.82;67.13;100868.50;7397000;19;20019;-72
2022/06/21 07:35:33;;;;;;;5.75;2.13;;;;;;;14.85;66.44;100871.03;7398658;19;20357;-72
2022/06/21 07:38:13;;;;;;;7.03;1.63;;;;;;;14.90;64.70;100866.44;7396681;19;20017;-72
2022/06/21 07:40:46;;;;;;;4.53;1.70;;;;;;;14.98;66.11;100868.78;7396694;19;20014;-72
2022/06/21 07:43:19;;;;;;;11.85;2.55;;;;;;;15.04;64.91;100888.81;7398770;19;20024;-72
2022/06/21 07:45:53;;;;;;;5.32;1.52;;;;;;;15.12;63.95;100881.47;7396542;19;20018;-72
2022/06/21 07:48:27;;;;;;;7.72;1.83;;;;;;;15.21;62.55;100877.63;7398381;19;20026;-72
2022/06/21 07:50:59;;;;;;;7.28;1.90;;;;;;;15.28;64.31;100887.03;7397743;19;20035;-72
2022/06/21 07:53:36;;;;;;;5.07;1.63;;;;;;;15.35;64.01;100883.19;7397937;19;20346;-72
2022/06/21 07:56:10;;;;;;;6.63;1.83;;;;;;;15.41;64.65;100893.53;7396252;19;20014;-72
2022/06/21 07:58:44;;;;;;;6.32;2.10;;;;;;;15.46;65.24;100893.38;7396385;19;20371;-72
2022/06/21 08:06:50;;;;;;;6.07;1.80;;;;;;;15.63;64.68;100888.28;7397437;19;20026;-72
2022/06/21 08:09:29;;;;;;;8.85;2.30;;;;;;;15.65;63.27;100880.25;7399021;19;20011;-72
2022/06/21 08:12:00;;;;;;;4.70;2.00;;;;;;;15.70;63.99;100878.28;7396078;19;20014;-72
2022/06/21 08:14:31;;;;;;;3.25;1.70;;;;;;;15.73;63.55;100883.47;7395491;19;20070;-72
2022/06/21 08:17:06;;;;;;;6.72;2.10;;;;;;;15.82;62.53;100891.97;7395413;19;20355;-71
2022/06/21 08:19:40;;;;;;;9.43;2.05;;;;;;;15.87;62.05;100892.63;7396244;19;20030;-71
2022/06/21 08:22:14;;;;;;;4.55;1.35;;;;;;;15.93;61.96;100884.44;7397874;19;20085;-71
2022/06/21 08:24:52;;;;;;;7.75;1.30;;;;;;;15.95;59.19;100866.72;7395843;19;20018;-71
2022/06/21 08:27:30;;;;;;;3.33;1.52;;;;;;;16.07;60.80;100874.13;7395761;19;20074;-73
2022/06/21 08:30:03;;;;;;;5.20;1.40;;;;;;;16.16;60.20;100879.97;7394857;19;20509;-73
2022/06/21 08:32:36;;;;;;;5.07;1.67;;;;;;;16.22;57.96;100888.50;7395201;19;20442;-72
2022/06/21 08:35:13;;;;;;;5.95;1.40;;;;;;;16.26;58.46;100882.16;7395778;19;20031;-71
2022/06/21 08:37:48;;;;;;;5.03;1.25;;;;;;;16.32;56.98;100888.97;7397030;19;20396;-72
2022/06/21 08:40:58;;;;;;;5.93;1.33;;;;;;;16.38;56.64;100886.03;7397308;19;20123;-72
2022/06/21 08:44:01;;;;;;;6.03;2.05;;;;;;;16.46;57.91;100885.69;7393353;19;20014;-71
2022/06/21 08:46:53;;;;;;;4.28;1.15;;;;;;;16.53;56.12;100873.91;7395493;19;20035;-71
2022/06/21 08:49:49;;;;;;;3.08;1.00;;;;;;;16.64;54.40;100883.16;7395949;19;20018;-71
2022/06/21 08:52:46;;;;;;;3.80;1.08;;;;;;;16.69;53.34;100881.16;7397526;19;20030;-71
2022/06/21 08:55:25;;;;;;;4.93;1.42;;;;;;;16.74;54.35;100874.75;7395332;19;20422;-70
2022/06/21 08:58:05;;;;;;;14.30;1.85;;;;;;;16.78;54.63;100876.31;7397297;19;20018;-72
2022/06/21 09:00:41;;;;;;;3.90;1.45;;;;;;;16.83;53.88;100881.38;7394869;19;20110;-71
2022/06/21 09:03:21;;;;;;;4.65;1.30;;;;;;;16.87;52.66;100890.06;7393837;19;20488;-71
2022/06/21 09:06:01;;;;;;;8.70;1.73;;;;;;;16.93;53.83;100884.50;7396392;19;20110;-71
2022/06/21 09:08:49;;;;;;;4.20;1.20;;;;;;;17.00;52.00;100893.91;7394014;19;20015;-71
2022/06/21 09:11:31;;;;;;;9.00;1.73;;;;;;;17.06;51.54;100883.03;7393649;19;20501;-71
2022/06/21 09:14:34;;;;;;;3.42;1.45;;;;;;;17.13;51.22;100885.41;7394090;19;20041;-72
2022/06/21 09:17:16;;;;;;;2.58;0.90;;;;;;;17.20;50.58;100889.44;7395433;19;20032;-72
2022/06/21 09:19:56;;;;;;;5.38;1.00;;;;;;;17.25;50.56;100880.38;7393721;19;20027;-72
2022/06/21 09:22:33;;;;;;;4.78;1.30;;;;;;;17.35;48.69;100886.09;7393696;19;20015;-71
2022/06/21 09:25:12;;;;;;;5.60;0.98;;;;;;;17.40;48.61;100883.19;7393369;19;20155;-71
2022/06/21 09:27:46;;;;;;;4.60;1.25;;;;;;;17.47;50.46;100874.03;7392590;19;20018;-70
2022/06/21 09:30:18;;;;;;;4.78;1.20;;;;;;;17.56;49.98;100884.19;7395614;19;20011;-72
2022/06/21 09:33:04;;;;;;;3.67;1.30;;;;;;;17.64;47.06;100888.25;7393417;19;20018;-71
2022/06/21 09:35:42;;;;;;;3.53;1.00;;;;;;;17.70;48.55;100890.59;7392374;19;20468;-72
2022/06/21 09:38:21;;;;;;;5.30;1.17;;;;;;;17.74;46.85;100886.88;7394715;19;20022;-71
2022/06/21 09:40:59;;;;;;;3.90;0.90;;;;;;;17.78;47.76;100880.50;7392758;19;20019;-71
2022/06/21 09:43:39;;;;;;;6.40;1.20;;;;;;;17.86;47.26;100890.72;7394251;19;20031;-71
2022/06/21 09:46:19;;;;;;;2.30;0.90;;;;;;;17.90;46.73;100863.06;7393271;19;20051;-70
2022/06/21 09:49:02;;;;;;;3.30;1.08;;;;;;;17.99;47.41;100877.72;7395765;19;20029;-72
2022/06/21 09:51:39;;;;;;;3.80;0.90;;;;;;;18.07;47.97;100880.81;7393157;19;20011;-70
2022/06/21 09:54:19;;;;;;;5.18;1.13;;;;;;;18.17;45.42;100886.53;7392958;19;20021;-69
2022/06/21 09:56:56;;;;;;;5.43;0.82;;;;;;;18.23;45.86;100880.91;7393378;19;20029;-70
2022/06/21 09:59:32;;;;;;;2.33;1.10;;;;;;;18.26;45.45;100882.53;7393603;19;20031;-69
2022/06/21 10:02:06;;;;;;;3.90;0.88;;;;;;;18.30;45.66;100881.44;7395991;19;20041;-70
2022/06/21 10:04:54;;;;;;;2.85;0.90;;;;;;;18.38;45.22;100881.91;7398579;19;20037;-70
2022/06/21 10:07:35;;;;;;;4.03;0.75;;;;;;;18.43;43.94;100881.69;7398234;19;20041;-70
2022/06/21 10:10:19;;;;;;;3.05;0.93;;;;;;;18.53;44.31;100872.28;7393345;19;20035;-70
2022/06/21 10:12:57;;;;;;;3.85;1.00;;;;;;;18.61;44.47;100888.66;7392571;19;20019;-70
2022/06/21 10:15:41;;;;;;;3.40;0.80;;;;;;;18.67;44.31;100875.03;7391643;19;20007;-70
2022/06/21 10:18:29;;;;;;;2.45;0.98;;;;;;;18.73;43.44;100880.03;7392791;19;20014;-70
2022/06/21 10:21:17;;;;;;;3.10;1.02;;;;;;;18.79;44.57;100877.97;7393489;19;20022;-70
2022/06/21 10:24:15;;;;;;;4.25;1.00;;;;;;;18.85;43.96;100869.69;7395079;19;20022;-72
2022/06/21 10:27:05;;;;;;;5.25;1.00;;;;;;;18.92;43.83;100884.38;7401376;19;20028;-70
2022/06/21 10:29:59;;;;;;;5.72;1.00;;;;;;;19.01;43.88;100898.97;7398575;19;20041;-69
2022/06/21 10:32:42;;;;;;;1.75;0.80;;;;;;;19.07;41.99;100871.19;7397609;19;20014;-70
2022/06/21 10:35:36;;;;;;;3.30;1.17;;;;;;;19.13;41.09;100878.81;7397533;19;20370;-69
2022/06/21 10:38:28;;;;;;;3.10;0.70;;;;;;;19.19;43.40;100875.81;7399923;19;20025;-70
2022/06/21 10:41:10;;;;;;;4.03;0.80;;;;;;;19.29;43.62;100879.69;7398703;19;20011;-70
2022/06/21 10:44:09;;;;;;;4.20;1.10;;;;;;;19.37;42.36;100909.38;7400315;19;20014;-70
2022/06/21 10:46:44;;;;;;;3.83;1.00;;;;;;;19.42;43.79;100877.16;7397862;19;20516;-70
2022/06/21 10:49:45;;;;;;;4.05;0.85;;;;;;;19.48;42.59;100881.31;7398327;19;20022;-69
2022/06/21 10:52:41;;;;;;;2.95;0.90;;;;;;;19.58;42.04;100882.50;7397502;19;20033;-70
2022/06/21 10:55:47;;;;;;;1.45;0.63;;;;;;;19.63;41.89;100875.09;7397238;19;20019;-70
2022/06/21 10:58:32;;;;;;;2.25;0.70;;;;;;;19.70;42.85;100876.47;7395337;19;20019;-71
2022/06/21 11:01:21;;;;;;;4.00;0.98;;;;;;;19.80;41.98;100873.25;7397109;19;20015;-70
2022/06/21 11:04:25;;;;;;;3.58;0.98;;;;;;;19.90;40.91;100869.13;7396475;19;20014;-70
2022/06/21 11:07:02;;;;;;;5.00;1.08;;;;;;;20.03;41.39;100871.94;7396575;19;20022;-70
2022/06/21 11:09:39;;;;;;;1.55;0.70;;;;;;;20.12;39.55;100873.16;7396525;19;20078;-69
2022/06/21 11:15:16;;;;;;;4.53;0.90;;;;;;;20.29;40.23;100859.69;7396595;19;20021;-70
2022/06/21 11:18:02;;;;;;;2.17;1.20;;;;;;;20.40;38.75;100864.38;7396796;19;20031;-71
2022/06/21 11:20:39;;;;;;;4.88;1.10;;;;;;;20.49;38.47;100862.97;7394635;19;20122;-68
2022/06/21 11:23:21;;;;;;;4.00;1.02;;;;;;;20.54;37.58;100858.19;7395034;19;20119;-69
2022/06/21 11:25:56;;;;;;;4.32;1.20;;;;;;;20.64;37.56;100845.16;7398469;19;20497;-69
2022/06/21 11:28:38;;;;;;;9.13;1.08;;;;;;;20.78;38.72;100858.50;7396217;19;20086;-71
2022/06/21 11:31:15;;;;;;;7.80;1.20;;;;;;;20.93;39.52;100869.16;7396378;19;20082;-70
2022/06/21 11:33:57;;;;;;;3.72;0.90;;;;;;;21.05;38.91;100863.03;7395507;19;20048;-70
2022/06/21 11:36:33;;;;;;;2.80;1.20;;;;;;;21.16;38.54;100852.53;7396530;19;20033;-70
2022/06/21 11:39:18;;;;;;;2.67;0.82;;;;;;;21.28;38.94;100856.22;7398044;19;20010;-70
2022/06/21 11:42:09;;;;;;;4.00;1.58;;;;;;;21.46;39.47;100854.16;7396889;19;20007;-69
2022/06/21 11:45:17;;;;;;;2.53;0.60;;;;;;;21.63;37.93;100850.41;7395002;19;20015;-68
2022/06/21 11:48:04;;;;;;;3.45;1.08;;;;;;;21.82;37.76;100865.19;7398144;19;20171;-68
2022/06/21 11:50:43;;;;;;;4.13;1.17;;;;;;;22.00;38.53;100851.53;7395903;19;20557;-70
2022/06/21 11:53:39;;;;;;;3.88;0.80;;;;;;;22.16;37.56;100854.88;7398200;19;20055;-70
2022/06/21 11:56:12;;;;;;;2.03;0.77;;;;;;;22.13;35.80;100868.44;7397660;19;20026;-70
2022/06/21 11:58:47;;;;;;;3.67;0.80;;;;;;;22.18;36.89;100858.31;7397265;19;20078;-69
2022/06/21 12:01:26;;;;;;;5.10;1.20;;;;;;;22.21;36.98;100875.94;7398263;19;20010;-69
2022/06/21 12:04:05;;;;;;;5.10;1.27;;;;;;;22.26;36.58;100860.44;7395546;19;20041;-69
2022/06/21 12:06:40;;;;;;;6.25;1.50;;;;;;;22.35;37.53;100861.63;7397143;19;20066;-69
2022/06/21 12:09:20;;;;;;;3.47;1.00;;;;;;;22.54;37.33;100855.88;7397614;19;20041;-69
2022/06/21 12:12:00;;;;;;;3.33;1.10;;;;;;;22.77;36.71;100847.06;7395423;19;20343;-70
2022/06/21 12:14:42;;;;;;;3.63;1.00;;;;;;;23.00;36.58;100854.38;7394729;19;20031;-69
2022/06/21 12:17:20;;;;;;;3.80;0.95;;;;;;;23.15;36.56;100853.31;7397720;19;20019;-70
2022/06/21 12:19:54;;;;;;;5.38;1.10;;;;;;;23.10;36.48;100853.63;7395557;19;20123;-71
2022/06/21 12:22:25;;;;;;;;;;;;;;;23.10;36.84;100850.06;7396095;19;20019;-71
2022/06/21 12:24:54;;;;;;;5.85;1.10;;;;;;;23.15;37.29;100841.72;7393673;19;20259;-70
2022/06/21 12:27:23;;;;;;;3.90;1.00;;;;;;;23.24;37.41;100862.47;7395019;19;20078;-70